HTI weather

Hamilton Island Airport
Hamilton Island, Queensland, Australia

Public forecast

Using degrees Celsius for public forecast. Weather courtesy of forecast.io.

METAR (pilot weather report)

Retrieved 2018/07/18 00:30 UTC (0 seconds ago):

YBHM 180030Z AUTO 15015KT 9999 // NCD 21/16 Q1020

TAF (pilot weather forecast)

Forecast is more than 12 hours old.

Retrieved 2018/07/17 12:00 UTC (12 hours ago):

TAF YBHM 171117Z 1712/1724 14012KT 9999 SCT015 SCT025 TEMPO 1715/1724 9999 NSW BKN014